createdAt,value
2023-01-19T00:01:42.182Z,917.33
2023-01-19T00:04:10.243Z,915.67
2023-01-19T00:06:38.106Z,917.53
2023-01-19T00:09:06.023Z,918.73
2023-01-19T00:11:33.982Z,918.27
2023-01-19T00:14:02.142Z,918.03
2023-01-19T00:16:30.120Z,919.50
2023-01-19T00:18:58.089Z,918.93
2023-01-19T00:21:26.075Z,919.40
2023-01-19T00:23:54.036Z,921.97
2023-01-19T00:26:22.526Z,920.07
2023-01-19T00:28:50.922Z,922.03
2023-01-19T00:31:20.985Z,920.07
2023-01-19T00:33:50.445Z,924.57
2023-01-19T00:36:19.359Z,922.10
2023-01-19T00:38:47.447Z,920.93
2023-01-19T00:41:15.491Z,924.30
2023-01-19T00:43:43.408Z,923.27
2023-01-19T00:46:11.268Z,924.77
2023-01-19T00:48:39.221Z,924.50
2023-01-19T00:51:07.141Z,926.10
2023-01-19T00:53:35.103Z,924.20
2023-01-19T00:56:02.966Z,924.97
2023-01-19T00:58:30.822Z,925.50
2023-01-19T01:01:03.912Z,925.10
2023-01-19T01:06:00.272Z,926.90
2023-01-19T01:08:28.088Z,923.37
2023-01-19T01:10:56.772Z,920.67
2023-01-19T01:13:27.252Z,918.67
2023-01-19T01:15:57.089Z,917.87
2023-01-19T01:18:26.463Z,917.97
2023-01-19T01:21:05.032Z,917.67
2023-01-19T01:23:33.658Z,917.50
2023-01-19T01:26:01.875Z,918.47
2023-01-19T01:28:29.810Z,920.10
2023-01-19T01:30:57.615Z,919.73
2023-01-19T01:33:40.670Z,917.77
2023-01-19T01:36:10.770Z,919.40
2023-01-19T01:38:40.631Z,918.77
2023-01-19T01:41:09.344Z,918.67
2023-01-19T01:43:50.655Z,923.10
2023-01-19T01:46:20.149Z,918.03
2023-01-19T01:49:16.554Z,916.20
2023-01-19T01:51:48.372Z,920.07
2023-01-19T01:54:31.055Z,917.53
2023-01-19T01:57:05.176Z,917.95
2023-01-19T01:59:39.442Z,920.63
2023-01-19T02:02:30.589Z,921.83
2023-01-19T02:05:04.575Z,926.27
2023-01-19T02:08:14.107Z,927.47
2023-01-19T02:11:01.936Z,928.80
2023-01-19T02:13:31.465Z,929.47
2023-01-19T02:16:03.503Z,928.23
2023-01-19T02:18:32.520Z,926.27
2023-01-19T02:21:04.895Z,924.80
2023-01-19T02:23:48.686Z,920.78
2023-01-19T02:26:39.236Z,924.07
2023-01-19T02:29:16.729Z,923.40
2023-01-19T02:31:45.560Z,928.27
2023-01-19T02:34:17.246Z,927.20
2023-01-19T02:36:56.521Z,923.23
2023-01-19T02:39:33.794Z,921.00
2023-01-19T02:42:06.436Z,922.37
2023-01-19T02:44:36.788Z,924.58
2023-01-19T02:47:05.961Z,924.60
2023-01-19T02:49:33.908Z,921.33
2023-01-19T02:52:01.978Z,920.03
2023-01-19T02:55:04.045Z,923.47
2023-01-19T02:57:39.728Z,925.50
2023-01-19T03:00:13.294Z,921.67
2023-01-19T03:03:09.362Z,921.73
2023-01-19T03:05:50.127Z,921.00
2023-01-19T03:08:34.454Z,921.97
2023-01-19T03:11:09.166Z,921.80
2023-01-19T03:13:52.732Z,921.57
2023-01-19T03:19:09.105Z,921.63
2023-01-19T03:21:40.063Z,922.07
2023-01-19T03:24:11.869Z,921.20
2023-01-19T03:26:45.164Z,918.80
2023-01-19T03:31:45.665Z,919.20
2023-01-19T03:34:16.521Z,923.13
2023-01-19T03:36:49.616Z,918.73
2023-01-19T03:39:25.120Z,918.75
2023-01-19T03:41:59.645Z,921.73
2023-01-19T03:44:29.815Z,921.40
2023-01-19T03:46:59.609Z,920.07
2023-01-19T03:49:30.901Z,920.33
2023-01-19T03:51:59.507Z,920.53
2023-01-19T03:54:28.502Z,919.70
2023-01-19T03:56:56.445Z,922.90
2023-01-19T03:59:24.306Z,920.33
2023-01-19T04:01:52.649Z,919.27
2023-01-19T04:04:20.497Z,919.00
2023-01-19T04:06:48.398Z,916.97
2023-01-19T04:09:17.544Z,917.63
2023-01-19T04:11:47.340Z,916.93
2023-01-19T04:14:15.175Z,919.20
2023-01-19T04:16:43.056Z,920.50
2023-01-19T04:19:11.437Z,920.90
2023-01-19T04:21:39.654Z,919.00
2023-01-19T04:24:08.014Z,921.37
2023-01-19T04:26:35.944Z,919.40
2023-01-19T04:29:04.614Z,917.97
2023-01-19T04:31:33.112Z,918.30
2023-01-19T04:34:01.057Z,917.90
2023-01-19T04:36:28.875Z,919.40
2023-01-19T04:38:56.683Z,921.13
2023-01-19T04:41:24.596Z,920.47
2023-01-19T04:43:52.484Z,918.53
2023-01-19T04:46:20.314Z,920.10
2023-01-19T04:48:48.260Z,919.83
2023-01-19T04:51:16.123Z,917.77
2023-01-19T04:53:44.035Z,917.63
2023-01-19T04:56:12.775Z,915.53
2023-01-19T04:58:41.033Z,915.77
2023-01-19T05:01:09.961Z,914.77
2023-01-19T05:03:37.965Z,914.93
2023-01-19T05:06:06.715Z,914.00
2023-01-19T05:08:34.617Z,915.70
2023-01-19T05:11:02.595Z,918.17
2023-01-19T05:13:30.716Z,916.77
2023-01-19T05:15:58.719Z,917.67
2023-01-19T05:18:26.660Z,921.33
2023-01-19T05:20:54.534Z,921.20
2023-01-19T05:23:22.454Z,919.90
2023-01-19T05:25:50.605Z,922.47
2023-01-19T05:28:19.334Z,923.63
2023-01-19T05:30:47.239Z,921.70
2023-01-19T05:33:15.273Z,922.57
2023-01-19T05:35:43.148Z,923.43
2023-01-19T05:38:10.953Z,926.73
2023-01-19T05:40:38.745Z,926.87
2023-01-19T05:43:06.713Z,925.73
2023-01-19T05:45:34.938Z,924.77
2023-01-19T05:48:02.902Z,924.13
2023-01-19T05:50:30.994Z,923.60
2023-01-19T05:53:00.423Z,922.80
2023-01-19T05:55:29.548Z,919.70
2023-01-19T05:57:57.516Z,918.93
2023-01-19T06:00:27.811Z,918.97
2023-01-19T06:02:55.800Z,918.77
2023-01-19T06:05:23.778Z,921.07
2023-01-19T06:07:51.653Z,919.10
2023-01-19T06:10:19.774Z,918.33
2023-01-19T06:12:47.654Z,917.87
2023-01-19T06:15:15.623Z,919.70
2023-01-19T06:17:43.502Z,917.43
2023-01-19T06:20:14.128Z,918.87
2023-01-19T06:22:42.108Z,918.93
2023-01-19T06:25:10.641Z,918.73
2023-01-19T06:27:40.063Z,916.60
2023-01-19T06:30:08.605Z,916.87
2023-01-19T06:32:36.584Z,914.73
2023-01-19T06:35:05.693Z,914.77
2023-01-19T06:37:34.825Z,913.63
2023-01-19T06:40:03.237Z,913.93
2023-01-19T06:42:31.295Z,914.53
2023-01-19T06:44:59.484Z,915.50
2023-01-19T06:47:27.394Z,914.13
2023-01-19T06:49:55.365Z,915.27
2023-01-19T06:52:23.318Z,914.80
2023-01-19T06:54:51.325Z,913.60
2023-01-19T06:57:19.239Z,914.90
2023-01-19T06:59:47.245Z,913.97
2023-01-19T07:02:26.461Z,914.37
2023-01-19T07:04:56.990Z,914.63
2023-01-19T07:07:25.674Z,915.97
2023-01-19T07:09:54.370Z,913.50
2023-01-19T07:12:23.168Z,916.07
2023-01-19T07:14:51.903Z,916.03
2023-01-19T07:17:20.451Z,917.00
2023-01-19T07:19:48.467Z,916.30
2023-01-19T07:22:16.443Z,913.30
2023-01-19T07:24:44.547Z,910.30
2023-01-19T07:27:12.879Z,906.53
2023-01-19T07:29:40.695Z,904.73
2023-01-19T07:32:08.913Z,888.90
2023-01-19T07:34:37.223Z,891.80
2023-01-19T07:37:05.127Z,893.57
2023-01-19T07:39:33.018Z,893.60
2023-01-19T07:42:01.385Z,902.10
2023-01-19T07:44:29.965Z,902.90
2023-01-19T07:46:57.930Z,904.40
2023-01-19T07:49:25.876Z,905.40
2023-01-19T07:51:56.475Z,909.47
2023-01-19T07:54:24.477Z,909.87
2023-01-19T07:56:55.524Z,911.50
2023-01-19T07:59:23.739Z,911.10
2023-01-19T08:01:53.626Z,911.67
2023-01-19T08:04:22.059Z,912.47
2023-01-19T08:06:50.107Z,913.33
2023-01-19T08:09:18.373Z,910.40
2023-01-19T08:11:46.673Z,914.47
2023-01-19T08:14:14.603Z,919.23
2023-01-19T08:16:42.455Z,918.73
2023-01-19T08:19:10.414Z,918.33
2023-01-19T08:21:39.188Z,921.87
2023-01-19T08:24:07.526Z,922.83
2023-01-19T08:26:35.986Z,919.23
2023-01-19T08:29:06.098Z,919.17
2023-01-19T08:31:34.054Z,919.60
2023-01-19T08:34:02.540Z,918.20
2023-01-19T08:36:30.551Z,909.07
2023-01-19T08:38:58.488Z,899.73
2023-01-19T08:41:27.077Z,897.63
2023-01-19T08:43:54.944Z,895.57
2023-01-19T08:46:22.887Z,890.63
2023-01-19T08:48:50.884Z,893.60
2023-01-19T08:51:19.555Z,891.23
2023-01-19T08:53:47.723Z,897.73
2023-01-19T08:56:15.731Z,901.93
2023-01-19T08:58:45.755Z,907.67
2023-01-19T09:01:17.080Z,906.13
2023-01-19T09:03:45.081Z,914.17
2023-01-19T09:06:17.084Z,913.60
2023-01-19T09:08:45.404Z,911.57
2023-01-19T09:11:15.566Z,912.67
2023-01-19T09:13:43.855Z,910.93
2023-01-19T09:16:13.526Z,907.23
2023-01-19T09:18:41.773Z,903.77
2023-01-19T09:21:09.700Z,902.70
2023-01-19T09:23:38.051Z,902.77
2023-01-19T09:26:07.126Z,905.00
2023-01-19T09:28:35.089Z,908.30
2023-01-19T09:31:07.823Z,916.47
2023-01-19T09:33:35.986Z,920.38
2023-01-19T09:36:04.909Z,916.10
2023-01-19T09:38:33.185Z,913.80
2023-01-19T09:41:01.826Z,914.70
2023-01-19T09:43:38.975Z,915.43
2023-01-19T09:46:41.639Z,915.30
2023-01-19T09:49:39.514Z,914.80
2023-01-19T09:52:12.516Z,914.80
2023-01-19T09:54:57.507Z,913.58
2023-01-19T09:57:30.504Z,911.17
2023-01-19T09:59:59.920Z,910.80
2023-01-19T10:02:40.817Z,914.50
2023-01-19T10:05:25.601Z,915.93
2023-01-19T10:07:56.154Z,913.83
2023-01-19T10:10:27.877Z,917.80
2023-01-19T10:13:03.522Z,919.93
2023-01-19T10:16:00.074Z,920.17
2023-01-19T10:18:35.925Z,916.40
2023-01-19T10:21:22.164Z,916.90
2023-01-19T10:24:06.707Z,916.27
2023-01-19T10:26:39.533Z,916.23
2023-01-19T10:29:15.017Z,921.25
2023-01-19T10:31:46.700Z,918.53
2023-01-19T10:34:21.581Z,918.97
2023-01-19T10:36:59.398Z,920.87
2023-01-19T10:39:27.354Z,918.13
2023-01-19T10:41:55.188Z,922.30
2023-01-19T10:44:28.969Z,921.83
2023-01-19T10:46:59.324Z,923.60
2023-01-19T10:49:30.173Z,918.93
2023-01-19T10:52:00.784Z,921.33
2023-01-19T10:54:32.403Z,921.80
2023-01-19T10:57:07.579Z,921.43
2023-01-19T10:59:38.971Z,923.07
2023-01-19T11:02:30.737Z,922.57
2023-01-19T11:05:21.433Z,920.22
2023-01-19T11:07:49.278Z,906.80
2023-01-19T11:10:23.383Z,905.57
2023-01-19T11:13:12.950Z,903.07
2023-01-19T11:15:44.887Z,905.47
2023-01-19T11:18:23.651Z,903.87
2023-01-19T11:20:55.324Z,905.97
2023-01-19T11:23:33.820Z,909.13
2023-01-19T11:26:05.598Z,909.17
2023-01-19T11:28:37.589Z,913.50
2023-01-19T11:31:11.400Z,914.17
2023-01-19T11:33:53.385Z,915.60
2023-01-19T11:36:28.133Z,913.87
2023-01-19T11:39:23.974Z,908.60
2023-01-19T11:41:57.263Z,911.73
2023-01-19T11:44:33.194Z,912.03
2023-01-19T11:47:06.100Z,916.83
2023-01-19T11:49:51.304Z,917.00
2023-01-19T11:52:35.994Z,916.20
2023-01-19T11:55:17.419Z,917.67
2023-01-19T11:57:52.389Z,916.63
2023-01-19T12:00:35.782Z,919.37
2023-01-19T12:03:30.774Z,920.13
2023-01-19T12:06:04.425Z,920.10
2023-01-19T12:08:40.086Z,921.30
2023-01-19T12:11:12.705Z,920.17
2023-01-19T12:13:44.312Z,927.60
2023-01-19T12:16:21.755Z,918.90
2023-01-19T12:19:14.915Z,919.57
2023-01-19T12:21:44.615Z,925.97
2023-01-19T12:24:18.830Z,919.43
2023-01-19T12:26:57.348Z,918.30
2023-01-19T12:29:31.464Z,919.67
2023-01-19T12:32:14.555Z,919.60
2023-01-19T12:34:50.093Z,919.45
2023-01-19T12:37:43.503Z,916.60
2023-01-19T12:40:26.963Z,918.42
2023-01-19T12:43:01.867Z,917.65
2023-01-19T12:45:35.184Z,919.27
2023-01-19T12:48:05.013Z,918.20
2023-01-19T12:50:40.404Z,919.20
2023-01-19T12:53:19.205Z,919.13
2023-01-19T12:56:00.209Z,919.23
2023-01-19T12:58:28.241Z,918.77
2023-01-19T13:01:19.228Z,918.57
2023-01-19T13:04:01.777Z,916.40
2023-01-19T13:06:50.011Z,914.93
2023-01-19T13:09:32.179Z,922.80
2023-01-19T13:12:15.477Z,917.93
2023-01-19T13:14:44.115Z,915.65
2023-01-19T13:17:33.709Z,916.73
2023-01-19T13:20:23.275Z,918.93
2023-01-19T13:22:52.212Z,918.17
2023-01-19T13:25:35.829Z,920.30
2023-01-19T13:28:10.695Z,920.27
2023-01-19T13:30:51.697Z,920.67
2023-01-19T13:33:23.336Z,919.73
2023-01-19T13:35:58.998Z,917.43
2023-01-19T13:38:28.262Z,918.50
2023-01-19T13:40:59.020Z,919.10
2023-01-19T13:43:34.006Z,919.23
2023-01-19T13:46:04.315Z,920.73
2023-01-19T13:48:33.019Z,920.97
2023-01-19T13:51:07.281Z,921.73
2023-01-19T13:53:35.645Z,920.97
2023-01-19T13:56:17.474Z,922.23
2023-01-19T13:58:58.764Z,924.00
2023-01-19T14:01:29.499Z,923.50
2023-01-19T14:03:58.956Z,923.40
2023-01-19T14:06:34.974Z,923.37
2023-01-19T14:09:07.749Z,925.07
2023-01-19T14:11:35.943Z,925.88
2023-01-19T14:14:03.940Z,927.90
2023-01-19T14:16:31.968Z,926.43
2023-01-19T14:19:02.518Z,940.87
2023-01-19T14:21:41.191Z,940.40
2023-01-19T14:24:17.215Z,947.37
2023-01-19T14:26:48.545Z,944.60
2023-01-19T14:29:16.525Z,943.70
2023-01-19T14:31:53.864Z,940.03
2023-01-19T14:35:14.021Z,938.00
2023-01-19T14:37:50.624Z,939.03
2023-01-19T14:40:21.603Z,941.20
2023-01-19T14:42:52.659Z,938.23
2023-01-19T14:45:34.179Z,936.37
2023-01-19T14:48:21.253Z,935.40
2023-01-19T14:51:02.924Z,935.03
2023-01-19T14:53:51.972Z,931.90
2023-01-19T14:56:31.707Z,933.87
2023-01-19T14:59:01.838Z,933.30
2023-01-19T15:01:31.296Z,936.73
2023-01-19T15:03:59.762Z,934.07
2023-01-19T15:06:28.210Z,939.37
2023-01-19T15:08:56.274Z,937.20
2023-01-19T15:11:31.514Z,938.63
2023-01-19T15:14:00.081Z,939.97
2023-01-19T15:16:30.466Z,936.53
2023-01-19T15:18:58.413Z,936.57
2023-01-19T15:21:26.996Z,932.57
2023-01-19T15:23:55.493Z,934.17
2023-01-19T15:26:26.482Z,928.90
2023-01-19T15:28:56.337Z,936.43
2023-01-19T15:31:26.444Z,932.03
2023-01-19T15:33:54.596Z,928.47
2023-01-19T15:36:24.522Z,932.10
2023-01-19T15:38:52.408Z,930.63
2023-01-19T15:41:28.032Z,932.77
2023-01-19T15:43:56.703Z,927.70
2023-01-19T15:46:26.033Z,927.30
2023-01-19T15:48:54.597Z,929.73
2023-01-19T15:51:27.948Z,933.10
2023-01-19T15:53:56.182Z,932.17
2023-01-19T15:56:28.994Z,932.47
2023-01-19T15:58:58.431Z,932.03
2023-01-19T16:01:32.476Z,931.37
2023-01-19T16:04:02.775Z,925.73
2023-01-19T16:06:31.801Z,928.43
2023-01-19T16:09:01.766Z,926.80
2023-01-19T16:11:35.293Z,925.17
2023-01-19T16:14:03.310Z,927.67
2023-01-19T16:16:31.359Z,923.77
2023-01-19T16:18:59.327Z,923.77
2023-01-19T16:21:27.384Z,925.37
2023-01-19T16:23:55.557Z,925.07
2023-01-19T16:26:25.352Z,922.53
2023-01-19T16:28:56.638Z,926.67
2023-01-19T16:31:24.766Z,924.63
2023-01-19T16:33:52.724Z,926.83
2023-01-19T16:36:28.144Z,928.30
2023-01-19T16:39:19.850Z,931.77
2023-01-19T16:41:47.794Z,930.40
2023-01-19T16:44:17.154Z,931.10
2023-01-19T16:46:46.591Z,929.60
2023-01-19T16:49:23.508Z,927.20
2023-01-19T16:51:53.714Z,926.33
2023-01-19T16:54:23.794Z,929.90
2023-01-19T16:56:52.416Z,931.53
2023-01-19T16:59:22.360Z,926.33
2023-01-19T17:01:52.272Z,930.03
2023-01-19T17:04:21.824Z,928.47
2023-01-19T17:06:52.813Z,926.80
2023-01-19T17:09:20.865Z,928.40
2023-01-19T17:11:49.001Z,925.33
2023-01-19T17:14:20.701Z,926.87
2023-01-19T17:16:49.492Z,930.77
2023-01-19T17:19:19.479Z,929.00
2023-01-19T17:21:49.338Z,925.87
2023-01-19T17:24:18.131Z,928.97
2023-01-19T17:26:48.791Z,926.57
2023-01-19T17:29:17.167Z,927.27
2023-01-19T17:31:46.054Z,927.10
2023-01-19T17:34:14.043Z,925.03
2023-01-19T17:36:41.998Z,926.13
2023-01-19T17:39:15.146Z,926.00
2023-01-19T17:44:10.934Z,927.30
2023-01-19T17:46:39.212Z,927.77
2023-01-19T17:49:08.355Z,930.27
2023-01-19T17:51:36.704Z,929.03
2023-01-19T17:54:05.031Z,928.30
2023-01-19T17:56:36.975Z,929.23
2023-01-19T17:59:07.962Z,928.30
2023-01-19T18:01:40.126Z,929.13
2023-01-19T18:04:09.273Z,923.07
2023-01-19T18:06:39.061Z,930.47
2023-01-19T18:09:07.635Z,929.17
2023-01-19T18:11:36.193Z,924.63
2023-01-19T18:14:05.701Z,926.73
2023-01-19T18:16:33.774Z,922.33
2023-01-19T18:19:01.924Z,921.13
2023-01-19T18:21:30.672Z,920.17
2023-01-19T18:24:05.029Z,924.57
2023-01-19T18:26:34.864Z,926.13
2023-01-19T18:29:02.798Z,923.03
2023-01-19T18:31:31.018Z,925.97
2023-01-19T18:33:59.712Z,923.53
2023-01-19T18:36:27.767Z,925.87
2023-01-19T18:38:55.913Z,928.50
2023-01-19T18:41:23.893Z,926.83
2023-01-19T18:43:53.734Z,930.30
2023-01-19T18:46:21.802Z,923.47
2023-01-19T18:48:50.103Z,920.07
2023-01-19T18:51:18.505Z,923.87
2023-01-19T18:53:46.427Z,923.50
2023-01-19T18:56:15.952Z,923.70
2023-01-19T18:58:45.043Z,925.60
2023-01-19T19:01:21.245Z,924.20
2023-01-19T19:03:50.094Z,924.17
2023-01-19T19:06:21.140Z,926.13
2023-01-19T19:08:54.376Z,924.47
2023-01-19T19:11:24.680Z,918.88
2023-01-19T19:14:01.395Z,921.47
2023-01-19T19:16:32.197Z,922.03
2023-01-19T19:19:02.121Z,924.03
2023-01-19T19:21:30.072Z,923.60
2023-01-19T19:23:58.846Z,921.87
2023-01-19T19:26:28.571Z,922.23
2023-01-19T19:29:12.355Z,921.03
2023-01-19T19:31:40.954Z,923.23
2023-01-19T19:34:12.571Z,919.87
2023-01-19T19:36:40.856Z,918.97
2023-01-19T19:39:08.881Z,920.17
2023-01-19T19:41:39.191Z,920.63
2023-01-19T19:44:07.153Z,921.50
2023-01-19T19:46:35.247Z,924.17
2023-01-19T19:49:05.303Z,924.13
2023-01-19T19:51:34.292Z,924.33
2023-01-19T19:54:02.525Z,921.97
2023-01-19T19:56:34.236Z,926.20
2023-01-19T19:59:02.218Z,925.70
2023-01-19T20:01:33.483Z,925.33
2023-01-19T20:04:09.977Z,922.63
2023-01-19T20:06:44.946Z,926.87
2023-01-19T20:09:14.379Z,926.00
2023-01-19T20:11:44.480Z,926.80
2023-01-19T20:14:13.827Z,928.87
2023-01-19T20:16:42.959Z,929.13
2023-01-19T20:19:11.255Z,930.00
2023-01-19T20:21:44.435Z,929.40
2023-01-19T20:26:47.206Z,931.77
2023-01-19T20:29:15.517Z,931.87
2023-01-19T20:31:48.004Z,928.70
2023-01-19T20:34:17.985Z,937.30
2023-01-19T20:36:49.853Z,928.87
2023-01-19T20:39:19.056Z,928.07
2023-01-19T20:41:49.509Z,927.60
2023-01-19T20:44:22.438Z,929.40
2023-01-19T20:46:51.735Z,927.40
2023-01-19T20:49:19.806Z,923.27
2023-01-19T20:51:48.486Z,925.63
2023-01-19T20:54:18.804Z,922.13
2023-01-19T20:56:46.696Z,922.17
2023-01-19T20:59:14.884Z,926.53
2023-01-19T21:01:43.325Z,926.80
2023-01-19T21:04:12.096Z,924.73
2023-01-19T21:06:40.683Z,919.47
2023-01-19T21:09:10.091Z,923.57
2023-01-19T21:11:39.660Z,919.20
2023-01-19T21:14:08.839Z,915.53
2023-01-19T21:16:37.511Z,904.23
2023-01-19T21:19:05.703Z,915.73
2023-01-19T21:21:33.789Z,911.13
2023-01-19T21:24:03.104Z,903.33
2023-01-19T21:26:31.542Z,898.03
2023-01-19T21:29:01.655Z,896.93
2023-01-19T21:31:30.083Z,897.57
2023-01-19T21:33:58.462Z,891.60
2023-01-19T21:36:26.573Z,899.50
2023-01-19T21:39:00.645Z,904.43
2023-01-19T21:41:30.595Z,908.83
2023-01-19T21:44:00.698Z,892.23
2023-01-19T21:46:29.788Z,903.33
2023-01-19T21:49:05.756Z,906.23
2023-01-19T21:51:36.384Z,901.53
2023-01-19T21:54:06.606Z,898.83
2023-01-19T21:56:35.973Z,892.13
2023-01-19T21:59:04.483Z,897.77
2023-01-19T22:01:34.244Z,905.73
2023-01-19T22:04:02.353Z,910.83
2023-01-19T22:06:30.369Z,913.13
2023-01-19T22:08:58.650Z,918.67
2023-01-19T22:11:27.990Z,916.37
2023-01-19T22:13:56.208Z,917.73
2023-01-19T22:16:25.306Z,917.10
2023-01-19T22:19:02.251Z,917.77
2023-01-19T22:21:33.327Z,919.70
2023-01-19T22:24:02.673Z,918.00
2023-01-19T22:26:32.481Z,921.90
2023-01-19T22:29:01.929Z,921.27
2023-01-19T22:31:30.842Z,923.90
2023-01-19T22:33:58.961Z,922.27
2023-01-19T22:36:34.141Z,923.50
2023-01-19T22:39:05.543Z,922.33
2023-01-19T22:41:42.860Z,923.17
2023-01-19T22:44:21.189Z,921.43
2023-01-19T22:46:50.821Z,923.23
2023-01-19T22:49:18.837Z,923.23
2023-01-19T22:51:47.244Z,922.67
2023-01-19T22:54:15.273Z,924.40
2023-01-19T22:56:43.366Z,925.10
2023-01-19T22:59:11.467Z,924.93
2023-01-19T23:01:42.190Z,924.97
2023-01-19T23:04:15.856Z,923.93
2023-01-19T23:06:46.866Z,923.23
2023-01-19T23:09:15.327Z,925.87
2023-01-19T23:11:45.448Z,924.17
2023-01-19T23:14:16.996Z,921.87
2023-01-19T23:16:47.450Z,923.97
2023-01-19T23:19:17.521Z,919.80
2023-01-19T23:21:45.995Z,921.50
2023-01-19T23:24:13.875Z,922.30
2023-01-19T23:26:41.862Z,922.63
2023-01-19T23:29:15.193Z,923.03
2023-01-19T23:31:46.022Z,923.67
2023-01-19T23:34:14.898Z,922.27
2023-01-19T23:36:44.115Z,922.53
2023-01-19T23:39:18.311Z,920.93
2023-01-19T23:41:46.712Z,920.37
2023-01-19T23:44:14.940Z,918.80
2023-01-19T23:46:44.180Z,919.00
2023-01-19T23:49:13.132Z,919.13
2023-01-19T23:51:41.973Z,918.03
2023-01-19T23:54:10.366Z,917.07
2023-01-19T23:56:39.206Z,914.43
2023-01-19T23:59:13.013Z,910.77
